createdAt,value
2017-12-11T00:00:40.641Z,0
2017-12-11T00:01:50.467Z,0
2017-12-11T00:03:00.012Z,0
2017-12-11T00:04:09.283Z,0
2017-12-11T00:05:19.399Z,0
2017-12-11T00:06:29.471Z,0
2017-12-11T00:07:39.561Z,0
2017-12-11T00:08:49.652Z,0
2017-12-11T00:09:59.749Z,0
2017-12-11T00:11:09.535Z,0
2017-12-11T00:12:19.614Z,0
2017-12-11T00:13:29.665Z,0
2017-12-11T00:14:39.201Z,0
2017-12-11T00:15:48.784Z,0
2017-12-11T00:16:58.877Z,0
2017-12-11T00:18:08.670Z,0
2017-12-11T00:19:19.989Z,0
2017-12-11T00:20:30.900Z,0
2017-12-11T00:21:41.952Z,0
2017-12-11T00:22:52.004Z,0
2017-12-11T00:24:02.066Z,0
2017-12-11T00:25:11.876Z,0
2017-12-11T00:26:21.944Z,0
2017-12-11T00:27:32.007Z,0
2017-12-11T00:28:42.851Z,0
2017-12-11T00:29:52.719Z,0
2017-12-11T00:31:02.788Z,0
2017-12-11T00:32:12.853Z,0
2017-12-11T00:33:22.630Z,0
2017-12-11T00:34:32.168Z,0
2017-12-11T00:35:41.703Z,0
2017-12-11T00:36:51.820Z,0
2017-12-11T00:38:01.870Z,0
2017-12-11T00:39:11.401Z,0
2017-12-11T00:40:21.464Z,0
2017-12-11T00:41:31.539Z,0
2017-12-11T00:42:41.582Z,0
2017-12-11T00:43:51.651Z,0
2017-12-11T00:45:01.712Z,0
2017-12-11T00:46:11.511Z,0
2017-12-11T00:47:21.300Z,0
2017-12-11T00:48:31.103Z,0
2017-12-11T00:49:41.180Z,0
2017-12-11T00:50:51.234Z,0
2017-12-11T00:52:01.302Z,0
2017-12-11T00:53:10.845Z,0
2017-12-11T00:54:20.638Z,0
2017-12-11T00:55:30.425Z,0
2017-12-11T00:56:40.453Z,0
2017-12-11T00:57:50.503Z,0
2017-12-11T00:59:00.287Z,0
2017-12-11T01:00:10.081Z,0
2017-12-11T01:01:20.137Z,0
2017-12-11T01:02:32.086Z,0
2017-12-11T01:03:42.135Z,0
2017-12-11T01:04:51.928Z,0
2017-12-11T01:06:01.989Z,0
2017-12-11T01:07:11.756Z,0
2017-12-11T01:08:21.328Z,0
2017-12-11T01:09:30.864Z,0
2017-12-11T01:10:40.922Z,0
2017-12-11T01:11:50.986Z,0
2017-12-11T01:13:01.045Z,0
2017-12-11T01:14:11.097Z,0
2017-12-11T01:15:21.535Z,0
2017-12-11T01:16:31.579Z,0
2017-12-11T01:17:41.614Z,0
2017-12-11T01:18:51.418Z,0
2017-12-11T01:20:01.472Z,0
2017-12-11T01:21:11.525Z,0
2017-12-11T01:22:21.060Z,0
2017-12-11T01:23:30.851Z,0
2017-12-11T01:24:40.904Z,0
2017-12-11T01:25:51.015Z,0
2017-12-11T01:27:01.069Z,0
2017-12-11T01:28:11.128Z,0
2017-12-11T01:29:21.199Z,0
2017-12-11T01:30:31.253Z,0
2017-12-11T01:31:41.047Z,0
2017-12-11T01:32:51.101Z,0
2017-12-11T01:34:01.146Z,0
2017-12-11T01:35:11.193Z,0
2017-12-11T01:36:21.252Z,0
2017-12-11T01:37:31.321Z,0
2017-12-11T01:38:41.388Z,0
2017-12-11T01:39:51.184Z,0
2017-12-11T01:41:00.975Z,0
2017-12-11T01:42:11.385Z,0
2017-12-11T01:43:21.440Z,0
2017-12-11T01:44:31.494Z,0
2017-12-11T01:45:41.559Z,0
2017-12-11T01:46:51.605Z,0
2017-12-11T01:48:01.453Z,0
2017-12-11T01:49:11.303Z,0
2017-12-11T01:50:21.097Z,0
2017-12-11T01:51:32.073Z,0
2017-12-11T01:52:42.121Z,0
2017-12-11T01:53:51.895Z,0
2017-12-11T01:55:01.694Z,0
2017-12-11T01:56:11.800Z,0
2017-12-11T01:57:21.856Z,0
2017-12-11T01:58:31.928Z,0
2017-12-11T01:59:41.980Z,0
2017-12-11T02:00:52.082Z,0
2017-12-11T02:02:01.889Z,0
2017-12-11T02:03:11.931Z,0
2017-12-11T02:04:21.717Z,0
2017-12-11T02:05:31.774Z,0
2017-12-11T02:06:41.650Z,0
2017-12-11T02:07:51.757Z,0
2017-12-11T02:09:01.286Z,0
2017-12-11T02:10:11.330Z,0
2017-12-11T02:11:21.393Z,0
2017-12-11T02:12:31.189Z,0
2017-12-11T02:13:41.251Z,0
2017-12-11T02:14:51.312Z,0
2017-12-11T02:16:01.384Z,0
2017-12-11T02:17:11.482Z,0
2017-12-11T02:18:21.555Z,0
2017-12-11T02:19:31.341Z,0
2017-12-11T02:20:41.128Z,0
2017-12-11T02:21:50.929Z,0
2017-12-11T02:23:00.719Z,0
2017-12-11T02:24:10.762Z,0
2017-12-11T02:25:20.553Z,0
2017-12-11T02:26:30.604Z,0
2017-12-11T02:27:40.638Z,0
2017-12-11T02:28:50.744Z,0
2017-12-11T02:30:00.800Z,0
2017-12-11T02:31:10.595Z,0
2017-12-11T02:32:20.680Z,0
2017-12-11T02:33:31.228Z,0
2017-12-11T02:34:41.331Z,0
2017-12-11T02:35:51.422Z,0
2017-12-11T02:37:01.477Z,0
2017-12-11T02:38:11.948Z,0
2017-12-11T02:39:21.744Z,0
2017-12-11T02:40:31.807Z,0
2017-12-11T02:41:41.913Z,0
2017-12-11T02:42:51.457Z,0
2017-12-11T02:44:01.238Z,0
2017-12-11T02:45:11.034Z,0
2017-12-11T02:46:21.131Z,0
2017-12-11T02:47:30.917Z,0
2017-12-11T02:48:40.730Z,0
2017-12-11T02:49:50.790Z,0
2017-12-11T02:51:00.872Z,0
2017-12-11T02:52:10.715Z,0
2017-12-11T02:53:20.770Z,0
2017-12-11T02:54:30.823Z,0
2017-12-11T02:55:40.889Z,0
2017-12-11T02:56:50.701Z,0
2017-12-11T02:58:00.552Z,0
2017-12-11T02:59:10.616Z,0
2017-12-11T03:00:20.670Z,0
2017-12-11T03:01:30.450Z,0
2017-12-11T03:02:40.250Z,0
2017-12-11T03:34:01.904Z,0
2017-12-11T03:35:11.952Z,0
2017-12-11T03:36:21.727Z,0
2017-12-11T03:37:31.498Z,0
2017-12-11T03:38:41.536Z,0
2017-12-11T03:39:52.974Z,0
2017-12-11T03:41:02.768Z,0
2017-12-11T03:42:12.819Z,0
2017-12-11T03:43:22.602Z,0
2017-12-11T03:44:32.648Z,0
2017-12-11T03:45:42.680Z,0
2017-12-11T03:46:52.747Z,0
2017-12-11T03:48:02.864Z,0
2017-12-11T03:49:12.915Z,0
2017-12-11T03:50:22.432Z,0
2017-12-11T03:51:32.219Z,0
2017-12-11T03:52:42.005Z,0
2017-12-11T03:53:51.789Z,0
2017-12-11T03:55:01.579Z,0
2017-12-11T03:56:11.625Z,0
2017-12-11T03:57:21.412Z,0
2017-12-11T03:58:31.195Z,0
2017-12-11T03:59:41.259Z,0
2017-12-11T04:00:50.786Z,0
2017-12-11T04:02:00.567Z,0
2017-12-11T04:03:10.667Z,0
2017-12-11T04:04:20.471Z,0
2017-12-11T04:05:30.255Z,0
2017-12-11T04:06:40.306Z,0
2017-12-11T04:07:50.378Z,0
2017-12-11T04:09:00.444Z,0
2017-12-11T04:10:10.230Z,0
2017-12-11T04:11:20.282Z,0
2017-12-11T04:12:30.337Z,0
2017-12-11T04:13:40.391Z,0
2017-12-11T04:14:50.442Z,0
2017-12-11T04:16:00.726Z,0
2017-12-11T04:17:10.773Z,0
2017-12-11T04:18:20.824Z,0
2017-12-11T04:19:30.616Z,0
2017-12-11T04:20:40.688Z,0
2017-12-11T04:21:50.741Z,0
2017-12-11T04:23:00.532Z,0
2017-12-11T04:24:10.318Z,0
2017-12-11T04:25:20.368Z,0
2017-12-11T04:26:30.193Z,0
2017-12-11T04:27:39.974Z,0
2017-12-11T04:28:50.005Z,0
2017-12-11T04:29:59.790Z,0
2017-12-11T04:31:09.855Z,0
2017-12-11T04:32:19.955Z,0
2017-12-11T04:33:30.901Z,0
2017-12-11T04:34:40.962Z,0
2017-12-11T04:35:51.010Z,0
2017-12-11T04:37:00.544Z,0
2017-12-11T04:38:10.597Z,0
2017-12-11T04:39:20.400Z,0
2017-12-11T04:40:30.188Z,0
2017-12-11T04:41:39.991Z,0
2017-12-11T04:42:49.790Z,0
2017-12-11T04:43:59.642Z,0
2017-12-11T04:45:09.428Z,0
2017-12-11T04:46:19.266Z,0
2017-12-11T04:47:29.062Z,0
2017-12-11T04:48:38.599Z,0
2017-12-11T04:49:49.295Z,0
2017-12-11T04:50:59.108Z,0
2017-12-11T04:52:09.154Z,0
2017-12-11T04:53:18.944Z,0
2017-12-11T04:54:29.003Z,0
2017-12-11T04:55:39.045Z,0
2017-12-11T04:56:48.844Z,0
2017-12-11T04:57:58.907Z,0
2017-12-11T04:59:08.691Z,0
2017-12-11T05:00:18.481Z,0
2017-12-11T05:01:28.344Z,0
2017-12-11T05:02:38.156Z,0
2017-12-11T05:03:48.192Z,0
2017-12-11T05:04:58.236Z,0
2017-12-11T05:06:09.385Z,0
2017-12-11T05:07:19.432Z,0
2017-12-11T05:08:28.694Z,0
2017-12-11T05:09:38.766Z,0
2017-12-11T05:10:48.577Z,0
2017-12-11T05:11:58.629Z,0
2017-12-11T05:13:08.208Z,0
2017-12-11T05:14:17.738Z,0
2017-12-11T05:15:27.539Z,0
2017-12-11T05:16:37.592Z,0
2017-12-11T05:17:47.642Z,0
2017-12-11T05:18:57.435Z,0
2017-12-11T05:20:07.492Z,0
2017-12-11T05:21:17.284Z,0
2017-12-11T05:22:26.810Z,0
2017-12-11T05:23:36.851Z,0
2017-12-11T05:24:46.374Z,0
2017-12-11T05:25:56.430Z,0
2017-12-11T05:27:06.242Z,0
2017-12-11T05:28:16.026Z,0
2017-12-11T05:29:26.118Z,0
2017-12-11T05:30:35.932Z,0
2017-12-11T05:31:45.985Z,0
2017-12-11T05:32:56.034Z,0
2017-12-11T05:34:06.099Z,0
2017-12-11T05:35:15.880Z,0
2017-12-11T05:36:25.663Z,0
2017-12-11T05:37:34.938Z,0
2017-12-11T05:38:44.740Z,0
2017-12-11T05:39:54.787Z,0
2017-12-11T05:41:04.993Z,0
2017-12-11T05:42:15.049Z,0
2017-12-11T05:43:24.842Z,0
2017-12-11T05:44:34.878Z,0
2017-12-11T05:45:44.726Z,0
2017-12-11T05:46:54.247Z,0
2017-12-11T05:48:04.029Z,0
2017-12-11T05:49:13.850Z,0
2017-12-11T05:50:23.916Z,0
2017-12-11T05:51:33.713Z,0
2017-12-11T05:52:43.520Z,0
2017-12-11T05:53:53.584Z,0
2017-12-11T05:55:03.649Z,0
2017-12-11T05:56:13.706Z,0
2017-12-11T05:57:23.288Z,0
2017-12-11T05:58:32.812Z,0
2017-12-11T05:59:42.735Z,0
2017-12-11T06:00:52.521Z,0
2017-12-11T06:02:02.579Z,0
2017-12-11T06:03:12.436Z,0
2017-12-11T06:04:22.223Z,0
2017-12-11T06:05:32.856Z,0
2017-12-11T06:06:42.709Z,0
2017-12-11T06:07:52.508Z,0
2017-12-11T06:09:02.569Z,0
2017-12-11T06:10:12.372Z,0
2017-12-11T06:11:22.422Z,0
2017-12-11T06:12:32.241Z,0
2017-12-11T06:13:42.031Z,0
2017-12-11T06:14:51.869Z,0
2017-12-11T06:16:01.948Z,0
2017-12-11T06:17:11.751Z,0
2017-12-11T06:18:21.561Z,0
2017-12-11T06:19:31.611Z,0
2017-12-11T06:20:41.494Z,0
2017-12-11T06:21:51.558Z,0
2017-12-11T06:23:01.620Z,0
2017-12-11T06:24:11.671Z,0
2017-12-11T06:25:21.729Z,0
2017-12-11T06:26:31.782Z,0
2017-12-11T06:27:41.063Z,0
2017-12-11T06:28:50.860Z,0
2017-12-11T06:30:00.674Z,0
2017-12-11T06:31:10.454Z,0
2017-12-11T06:32:20.037Z,0
2017-12-11T06:33:29.574Z,0
2017-12-11T06:34:39.613Z,0
2017-12-11T06:35:49.666Z,0
2017-12-11T06:36:59.714Z,0
2017-12-11T06:38:09.764Z,0
2017-12-11T06:39:19.564Z,0
2017-12-11T06:40:29.089Z,0
2017-12-11T06:41:39.134Z,5
2017-12-11T06:42:49.172Z,5
2017-12-11T06:43:59.219Z,5
2017-12-11T06:45:09.324Z,5
2017-12-11T06:46:19.117Z,5
2017-12-11T06:47:28.654Z,5
2017-12-11T06:48:38.714Z,5
2017-12-11T06:49:48.247Z,5
2017-12-11T06:50:58.306Z,5
2017-12-11T06:52:08.086Z,10
2017-12-11T06:53:17.866Z,10
2017-12-11T06:54:27.410Z,10
2017-12-11T06:55:37.469Z,10
2017-12-11T06:56:47.512Z,10
2017-12-11T06:57:57.304Z,10
2017-12-11T06:59:07.361Z,10
2017-12-11T07:00:17.448Z,15
2017-12-11T07:01:27.562Z,15
2017-12-11T07:02:37.591Z,15
2017-12-11T07:03:47.468Z,15
2017-12-11T07:04:57.515Z,15
2017-12-11T07:06:07.316Z,20
2017-12-11T07:07:17.359Z,20
2017-12-11T07:08:27.159Z,20
2017-12-11T07:09:36.962Z,20
2017-12-11T07:10:46.494Z,20
2017-12-11T07:11:56.549Z,25
2017-12-11T07:13:06.348Z,25
2017-12-11T07:14:16.135Z,25
2017-12-11T07:15:26.189Z,25
2017-12-11T07:16:35.992Z,30
2017-12-11T07:17:46.053Z,30
2017-12-11T07:18:55.851Z,30
2017-12-11T07:20:05.442Z,30
2017-12-11T07:21:15.230Z,30
2017-12-11T07:22:25.293Z,35
2017-12-11T07:23:35.087Z,35
2017-12-11T07:24:44.885Z,35
2017-12-11T07:25:54.677Z,35
2017-12-11T07:27:04.198Z,35
2017-12-11T07:28:14.244Z,35
2017-12-11T07:29:24.317Z,40
2017-12-11T07:30:34.368Z,40
2017-12-11T07:31:44.433Z,40
2017-12-11T07:32:55.435Z,40
2017-12-11T07:34:05.498Z,45
2017-12-11T07:35:15.294Z,50
2017-12-11T07:36:25.354Z,45
2017-12-11T07:37:35.135Z,50
2017-12-11T07:38:44.930Z,40
2017-12-11T07:39:54.734Z,40
2017-12-11T07:41:04.820Z,40
2017-12-11T07:42:14.870Z,40
2017-12-11T07:43:24.413Z,40
2017-12-11T07:44:34.197Z,40
2017-12-11T07:45:44.264Z,40
2017-12-11T07:46:54.365Z,40
2017-12-11T07:48:04.431Z,45
2017-12-11T07:49:14.486Z,45
2017-12-11T07:50:24.280Z,50
2017-12-11T07:51:34.339Z,50
2017-12-11T07:52:44.401Z,50
2017-12-11T07:53:54.189Z,50
2017-12-11T07:55:03.772Z,55
2017-12-11T07:56:13.557Z,55
2017-12-11T07:57:23.621Z,55
2017-12-11T07:58:34.539Z,55
2017-12-11T07:59:44.611Z,55
2017-12-11T08:00:54.406Z,55
2017-12-11T08:02:04.191Z,55
2017-12-11T08:03:14.249Z,55
2017-12-11T08:04:23.527Z,55
2017-12-11T08:05:33.605Z,50
2017-12-11T08:06:43.719Z,50
2017-12-11T08:07:53.529Z,50
2017-12-11T08:09:03.311Z,50
2017-12-11T08:10:13.111Z,50
2017-12-11T08:11:23.166Z,45
2017-12-11T08:12:33.017Z,45
2017-12-11T08:13:42.813Z,45
2017-12-11T08:14:52.879Z,45
2017-12-11T08:16:02.671Z,45
2017-12-11T08:17:12.468Z,45
2017-12-11T08:18:22.268Z,45
2017-12-11T08:19:32.743Z,45
2017-12-11T08:20:44.163Z,45
2017-12-11T08:21:54.248Z,45
2017-12-11T08:23:04.326Z,45
2017-12-11T08:24:14.378Z,45
2017-12-11T08:25:24.120Z,50
2017-12-11T08:26:34.173Z,50
2017-12-11T08:27:44.226Z,50
2017-12-11T08:28:54.290Z,55
2017-12-11T08:30:04.184Z,55
2017-12-11T08:31:13.971Z,55
2017-12-11T08:32:23.503Z,60
2017-12-11T08:33:33.300Z,60
2017-12-11T08:34:43.099Z,65
2017-12-11T08:35:53.162Z,65
2017-12-11T08:37:02.700Z,65
2017-12-11T08:38:12.754Z,70
2017-12-11T08:39:22.557Z,70
2017-12-11T08:40:32.353Z,70
2017-12-11T08:41:42.159Z,75
2017-12-11T08:42:51.960Z,75
2017-12-11T08:44:01.768Z,75
2017-12-11T08:45:11.820Z,80
2017-12-11T08:46:22.428Z,85
2017-12-11T08:47:32.525Z,90
2017-12-11T08:48:42.596Z,90
2017-12-11T08:49:52.407Z,95
2017-12-11T08:51:02.456Z,95
2017-12-11T08:52:12.583Z,100
2017-12-11T08:53:22.116Z,100
2017-12-11T08:54:31.954Z,105
2017-12-11T08:55:42.036Z,110
2017-12-11T08:56:51.842Z,115
2017-12-11T08:58:01.895Z,110
2017-12-11T08:59:11.165Z,110
2017-12-11T09:00:20.951Z,105
2017-12-11T09:01:31.009Z,100
2017-12-11T09:02:41.061Z,100
2017-12-11T09:03:50.848Z,95
2017-12-11T09:05:00.936Z,100
2017-12-11T09:06:10.731Z,100
2017-12-11T09:07:20.534Z,100
2017-12-11T09:08:30.350Z,100
2017-12-11T09:09:40.399Z,100
2017-12-11T09:10:50.500Z,100
2017-12-11T09:12:00.572Z,100
2017-12-11T09:13:10.633Z,100
2017-12-11T09:14:20.676Z,100
2017-12-11T09:15:32.454Z,100
2017-12-11T09:16:42.298Z,100
2017-12-11T09:17:52.382Z,100
2017-12-11T09:19:02.259Z,100
2017-12-11T09:20:11.791Z,100
2017-12-11T09:21:21.826Z,100
2017-12-11T09:22:31.971Z,100
2017-12-11T09:23:41.761Z,100
2017-12-11T09:24:52.150Z,100
2017-12-11T09:26:02.208Z,100
2017-12-11T09:27:12.011Z,95
2017-12-11T09:28:21.786Z,95
2017-12-11T09:29:31.598Z,95
2017-12-11T09:30:41.380Z,95
2017-12-11T09:31:51.788Z,90
2017-12-11T09:33:01.347Z,90
2017-12-11T09:34:11.460Z,90
2017-12-11T09:35:21.296Z,85
2017-12-11T09:36:31.371Z,85
2017-12-11T09:37:40.925Z,85
2017-12-11T09:38:51.005Z,85
2017-12-11T09:40:01.132Z,85
2017-12-11T09:41:10.669Z,85
2017-12-11T09:42:20.231Z,85
2017-12-11T09:43:30.301Z,85
2017-12-11T09:44:40.367Z,80
2017-12-11T09:45:50.416Z,80
2017-12-11T09:47:00.460Z,80
2017-12-11T09:48:10.523Z,80
2017-12-11T09:49:20.307Z,80
2017-12-11T09:50:30.105Z,85
2017-12-11T09:51:40.209Z,85
2017-12-11T09:52:50.272Z,80
2017-12-11T09:54:00.329Z,80
2017-12-11T09:55:10.383Z,80
2017-12-11T09:56:20.197Z,80
2017-12-11T09:57:30.005Z,80
2017-12-11T09:58:39.806Z,85
2017-12-11T09:59:49.877Z,85
2017-12-11T10:01:00.783Z,90
2017-12-11T10:02:10.581Z,90
2017-12-11T10:03:20.701Z,95
2017-12-11T10:04:30.255Z,95
2017-12-11T10:05:40.311Z,100
2017-12-11T10:06:50.115Z,100
2017-12-11T10:07:59.904Z,105
2017-12-11T10:09:09.758Z,105
2017-12-11T10:10:19.554Z,115
2017-12-11T10:11:29.653Z,115
2017-12-11T10:12:39.446Z,115
2017-12-11T10:13:49.231Z,120
2017-12-11T10:14:59.296Z,120
2017-12-11T10:16:08.858Z,120
2017-12-11T10:17:18.912Z,120
2017-12-11T10:18:28.436Z,125
2017-12-11T10:19:37.969Z,125
2017-12-11T10:20:48.041Z,125
2017-12-11T10:21:57.833Z,125
2017-12-11T10:23:07.883Z,125
2017-12-11T10:24:18.008Z,125
2017-12-11T10:25:27.806Z,125
2017-12-11T10:26:37.677Z,120
2017-12-11T10:27:47.462Z,120
2017-12-11T10:28:57.547Z,120
2017-12-11T10:30:07.368Z,120
2017-12-11T10:31:16.932Z,120
2017-12-11T10:32:27.008Z,125
2017-12-11T10:33:37.084Z,120
2017-12-11T10:34:47.146Z,120
2017-12-11T10:35:56.932Z,120
2017-12-11T10:37:06.463Z,120
2017-12-11T10:38:16.282Z,120
2017-12-11T10:39:26.357Z,120
2017-12-11T10:40:36.426Z,115
2017-12-11T10:41:46.221Z,115
2017-12-11T10:42:56.285Z,110
2017-12-11T10:44:06.344Z,110
2017-12-11T10:45:16.536Z,120
2017-12-11T10:46:26.364Z,120
2017-12-11T10:47:36.449Z,115
2017-12-11T10:48:46.252Z,115
2017-12-11T10:49:56.303Z,115
2017-12-11T10:51:06.424Z,115
2017-12-11T10:52:16.265Z,110
2017-12-11T10:53:26.091Z,105
2017-12-11T10:54:35.895Z,105
2017-12-11T10:55:45.682Z,100
2017-12-11T10:56:55.795Z,100
2017-12-11T10:58:05.610Z,95
2017-12-11T10:59:15.702Z,95
2017-12-11T11:00:25.489Z,90
2017-12-11T11:01:35.303Z,95
2017-12-11T11:02:45.110Z,95
2017-12-11T11:03:55.169Z,95
2017-12-11T11:05:05.221Z,100
2017-12-11T11:06:15.290Z,100
2017-12-11T11:07:25.365Z,95
2017-12-11T11:08:35.763Z,95
2017-12-11T11:09:45.836Z,90
2017-12-11T11:10:55.660Z,90
2017-12-11T11:12:05.481Z,90
2017-12-11T11:13:15.558Z,90
2017-12-11T11:14:25.445Z,85
2017-12-11T11:15:35.521Z,85
2017-12-11T11:16:45.585Z,80
2017-12-11T11:17:55.377Z,80
2017-12-11T11:19:05.457Z,80
2017-12-11T11:20:15.582Z,75
2017-12-11T11:21:25.661Z,75
2017-12-11T11:22:35.214Z,75
2017-12-11T11:23:45.288Z,70
2017-12-11T11:24:55.350Z,70
2017-12-11T11:26:05.436Z,70
2017-12-11T11:27:15.230Z,70
2017-12-11T11:28:25.022Z,70
2017-12-11T11:29:35.129Z,70
2017-12-11T11:30:45.207Z,70
2017-12-11T11:31:55.341Z,70
2017-12-11T11:33:05.404Z,70
2017-12-11T11:34:15.474Z,70
2017-12-11T11:35:25.273Z,70
2017-12-11T11:36:35.074Z,70
2017-12-11T11:37:44.952Z,65
2017-12-11T11:38:54.747Z,65
2017-12-11T11:40:04.550Z,65
2017-12-11T11:41:14.350Z,60
2017-12-11T11:42:24.422Z,60
2017-12-11T11:43:34.475Z,60
2017-12-11T11:44:44.527Z,60
2017-12-11T11:45:54.602Z,55
2017-12-11T11:47:04.419Z,55
2017-12-11T11:48:14.472Z,55
2017-12-11T11:49:24.612Z,55
2017-12-11T11:50:34.404Z,55
2017-12-11T11:51:43.947Z,55
2017-12-11T11:52:54.048Z,55
2017-12-11T11:54:04.107Z,50
2017-12-11T11:55:13.900Z,50
2017-12-11T11:56:23.428Z,50
2017-12-11T11:57:33.484Z,50
2017-12-11T11:58:43.277Z,50
2017-12-11T11:59:53.088Z,50
2017-12-11T12:01:03.131Z,55
2017-12-11T12:02:12.932Z,55
2017-12-11T12:03:22.719Z,60
2017-12-11T12:04:32.245Z,65
2017-12-11T12:05:42.049Z,65
2017-12-11T12:06:52.113Z,65
2017-12-11T12:08:02.166Z,65
2017-12-11T12:09:12.222Z,65
2017-12-11T12:10:22.284Z,65
2017-12-11T12:11:32.346Z,65
2017-12-11T12:12:42.433Z,60
2017-12-11T12:13:52.479Z,60
2017-12-11T12:15:02.277Z,60
2017-12-11T12:16:12.342Z,60
2017-12-11T12:17:22.413Z,60
2017-12-11T12:18:32.254Z,60
2017-12-11T12:19:42.051Z,60
2017-12-11T12:20:52.098Z,60
2017-12-11T12:22:01.892Z,60
2017-12-11T12:23:11.689Z,60
2017-12-11T12:24:21.751Z,60
2017-12-11T12:25:31.815Z,65
2017-12-11T12:26:41.616Z,60
2017-12-11T12:27:51.726Z,60
2017-12-11T12:29:01.554Z,60
2017-12-11T12:30:11.670Z,60
2017-12-11T12:31:21.468Z,60
2017-12-11T12:32:31.265Z,55
2017-12-11T12:33:41.319Z,55
2017-12-11T12:34:51.380Z,55
2017-12-11T12:36:01.433Z,55
2017-12-11T12:37:11.242Z,55
2017-12-11T12:38:21.298Z,60
2017-12-11T12:39:31.114Z,65
2017-12-11T12:40:41.165Z,60
2017-12-11T12:41:51.237Z,60
2017-12-11T12:43:01.300Z,65
2017-12-11T12:44:11.095Z,65
2017-12-11T12:45:21.148Z,65
2017-12-11T12:46:30.950Z,60
2017-12-11T12:47:41.015Z,60
2017-12-11T12:48:51.117Z,60
2017-12-11T12:50:01.193Z,55
2017-12-11T12:51:11.251Z,55
2017-12-11T12:52:21.304Z,55
2017-12-11T12:53:31.106Z,50
2017-12-11T12:54:41.203Z,50
2017-12-11T12:55:50.996Z,50
2017-12-11T12:57:01.064Z,50
2017-12-11T12:58:10.874Z,50
2017-12-11T12:59:20.407Z,45
2017-12-11T13:00:29.981Z,45
2017-12-11T13:01:40.086Z,45
2017-12-11T13:02:50.155Z,40
2017-12-11T13:04:00.237Z,40
2017-12-11T13:05:10.301Z,40
2017-12-11T13:06:20.364Z,40
2017-12-11T13:07:30.178Z,35
2017-12-11T13:08:40.314Z,35
2017-12-11T13:09:50.406Z,35
2017-12-11T13:11:00.480Z,35
2017-12-11T13:12:10.546Z,35
2017-12-11T13:13:20.088Z,35
2017-12-11T13:14:29.889Z,30
2017-12-11T13:15:39.946Z,30
2017-12-11T13:16:50.019Z,30
2017-12-11T13:18:00.098Z,30
2017-12-11T13:19:09.915Z,25
2017-12-11T13:20:19.719Z,25
2017-12-11T13:21:29.788Z,25
2017-12-11T13:22:39.851Z,25
2017-12-11T13:23:49.991Z,25
2017-12-11T13:25:00.051Z,25
2017-12-11T13:26:09.903Z,25
2017-12-11T13:27:19.454Z,25
2017-12-11T13:28:29.260Z,25
2017-12-11T13:29:38.813Z,25
2017-12-11T13:30:48.877Z,25
2017-12-11T13:31:58.956Z,25
2017-12-11T13:33:09.025Z,25
2017-12-11T13:34:19.095Z,25
2017-12-11T13:35:29.149Z,30
2017-12-11T13:36:39.203Z,30
2017-12-11T13:37:49.057Z,25
2017-12-11T13:38:58.618Z,25
2017-12-11T13:40:08.689Z,25
2017-12-11T13:41:18.773Z,25
2017-12-11T13:42:28.580Z,25
2017-12-11T13:43:38.649Z,20
2017-12-11T13:44:48.721Z,20
2017-12-11T13:45:58.786Z,20
2017-12-11T13:47:08.858Z,20
2017-12-11T13:48:18.921Z,15
2017-12-11T13:49:29.024Z,15
2017-12-11T13:50:39.097Z,15
2017-12-11T13:51:48.893Z,15
2017-12-11T13:52:58.965Z,10
2017-12-11T13:54:09.030Z,10
2017-12-11T13:55:19.094Z,10
2017-12-11T13:56:29.196Z,10
2017-12-11T13:57:39.270Z,10
2017-12-11T13:58:49.055Z,10
2017-12-11T13:59:59.200Z,10
2017-12-11T14:01:09.787Z,10
2017-12-11T14:02:19.591Z,5
2017-12-11T14:03:29.661Z,5
2017-12-11T14:04:39.205Z,5
2017-12-11T14:05:49.004Z,5
2017-12-11T14:06:58.878Z,5
2017-12-11T14:08:08.666Z,5
2017-12-11T14:09:18.741Z,5
2017-12-11T14:10:28.932Z,5
2017-12-11T14:11:38.997Z,5
2017-12-11T14:12:48.798Z,5
2017-12-11T14:13:59.621Z,0
2017-12-11T14:15:09.704Z,0
2017-12-11T14:16:19.241Z,0
2017-12-11T14:17:29.294Z,0
2017-12-11T14:18:39.429Z,0
2017-12-11T14:19:49.499Z,0
2017-12-11T14:20:59.031Z,0
2017-12-11T14:22:09.142Z,0
2017-12-11T14:23:19.196Z,0
2017-12-11T14:24:29.309Z,0
2017-12-11T14:25:39.380Z,0
2017-12-11T14:26:49.181Z,0
2017-12-11T14:27:59.247Z,0
2017-12-11T14:29:09.060Z,0
2017-12-11T14:30:19.171Z,0
2017-12-11T14:31:29.232Z,0
2017-12-11T14:32:39.052Z,0
2017-12-11T14:33:49.129Z,0
2017-12-11T14:34:59.203Z,0
2017-12-11T14:36:09.326Z,0
2017-12-11T14:37:19.391Z,0
2017-12-11T14:38:29.448Z,0
2017-12-11T14:39:39.242Z,0
2017-12-11T14:40:49.052Z,0
2017-12-11T14:41:58.326Z,0
2017-12-11T14:43:08.386Z,0
2017-12-11T14:44:18.469Z,0
2017-12-11T14:45:28.557Z,0
2017-12-11T14:46:38.474Z,0
2017-12-11T14:47:48.333Z,0
2017-12-11T14:48:58.963Z,0
2017-12-11T14:50:08.776Z,0
2017-12-11T14:51:18.069Z,0
2017-12-11T14:52:27.908Z,0
2017-12-11T14:53:38.040Z,0
2017-12-11T14:54:48.097Z,0
2017-12-11T14:55:57.936Z,0
2017-12-11T14:57:08.024Z,0
2017-12-11T14:58:17.834Z,0
2017-12-11T14:59:27.904Z,0
2017-12-11T15:00:37.186Z,0
2017-12-11T15:01:47.251Z,0
2017-12-11T15:02:57.099Z,0
2017-12-11T15:04:06.368Z,0
2017-12-11T15:05:16.441Z,0
2017-12-11T15:06:26.239Z,0
2017-12-11T15:07:36.060Z,0
2017-12-11T15:08:45.858Z,0
2017-12-11T15:09:55.658Z,0
2017-12-11T15:11:05.850Z,0
2017-12-11T15:12:15.923Z,0
2017-12-11T15:13:25.981Z,0
2017-12-11T15:14:36.044Z,0
2017-12-11T15:15:46.127Z,0
2017-12-11T15:16:56.986Z,0
2017-12-11T15:18:07.086Z,0
2017-12-11T15:19:16.897Z,0
2017-12-11T15:20:26.707Z,0
2017-12-11T15:21:35.993Z,0
2017-12-11T15:22:45.848Z,0
2017-12-11T15:23:55.392Z,0
2017-12-11T15:25:05.189Z,0
2017-12-11T15:26:14.995Z,0
2017-12-11T15:27:25.116Z,0
2017-12-11T15:28:35.225Z,0
2017-12-11T15:29:45.301Z,0
2017-12-11T15:30:55.395Z,0
2017-12-11T15:32:05.214Z,0
2017-12-11T15:33:15.052Z,0
2017-12-11T15:34:24.917Z,0
2017-12-11T15:35:34.703Z,0
2017-12-11T15:36:44.586Z,0
2017-12-11T15:37:54.656Z,0
2017-12-11T15:39:04.463Z,0
2017-12-11T15:40:14.062Z,0
2017-12-11T15:41:24.121Z,0
2017-12-11T15:42:34.209Z,0
2017-12-11T15:43:44.281Z,0
2017-12-11T15:44:54.352Z,0
2017-12-11T15:46:04.420Z,0
2017-12-11T15:47:14.484Z,0
2017-12-11T15:48:24.548Z,0
2017-12-11T15:49:34.362Z,0
2017-12-11T15:50:44.469Z,0
2017-12-11T15:51:54.524Z,0
2017-12-11T15:53:04.331Z,0
2017-12-11T15:54:14.390Z,0
2017-12-11T15:55:24.249Z,0
2017-12-11T15:56:34.365Z,0
2017-12-11T15:57:43.956Z,0
2017-12-11T15:58:54.024Z,0
2017-12-11T16:00:03.852Z,0
2017-12-11T16:01:13.673Z,0
2017-12-11T16:02:23.769Z,0
2017-12-11T16:03:33.860Z,0
2017-12-11T16:04:43.698Z,0
2017-12-11T16:05:53.238Z,0
2017-12-11T16:07:03.354Z,0
2017-12-11T16:08:12.884Z,0
2017-12-11T16:09:22.957Z,0
2017-12-11T16:10:33.023Z,0
2017-12-11T16:11:43.097Z,0
2017-12-11T16:12:52.903Z,0
2017-12-11T16:14:02.973Z,0
2017-12-11T16:15:13.089Z,0
2017-12-11T16:16:23.152Z,0
2017-12-11T16:17:33.223Z,0
2017-12-11T16:18:43.079Z,0
2017-12-11T16:19:53.139Z,0
2017-12-11T16:21:02.992Z,0
2017-12-11T16:22:12.799Z,0
2017-12-11T16:23:22.604Z,0
2017-12-11T16:24:32.422Z,0
2017-12-11T16:25:42.508Z,0
2017-12-11T16:26:52.568Z,0
2017-12-11T16:28:02.640Z,0
2017-12-11T16:29:12.697Z,0
2017-12-11T16:30:22.845Z,0
2017-12-11T16:31:32.911Z,0
2017-12-11T16:32:42.757Z,0
2017-12-11T16:33:52.563Z,0
2017-12-11T16:35:02.348Z,0
2017-12-11T16:36:13.496Z,0
2017-12-11T16:37:23.572Z,0
2017-12-11T16:38:35.118Z,0
2017-12-11T16:39:44.956Z,0
2017-12-11T16:40:54.772Z,0
2017-12-11T16:42:04.588Z,0
2017-12-11T16:43:13.909Z,0
2017-12-11T16:44:24.102Z,0
2017-12-11T16:45:34.498Z,0
2017-12-11T16:46:44.620Z,0
2017-12-11T16:47:54.462Z,0
2017-12-11T16:49:04.265Z,0
2017-12-11T16:50:14.359Z,0
2017-12-11T16:51:24.178Z,0
2017-12-11T16:52:34.268Z,0
2017-12-11T16:53:44.086Z,0
2017-12-11T16:54:54.150Z,0
2017-12-11T16:56:03.972Z,0
2017-12-11T16:57:14.051Z,0
2017-12-11T16:58:23.940Z,0
2017-12-11T16:59:33.746Z,0
2017-12-11T17:00:43.812Z,0
2017-12-11T17:01:53.949Z,0
2017-12-11T17:03:04.047Z,0
2017-12-11T17:04:14.125Z,0
2017-12-11T17:05:24.257Z,0
2017-12-11T17:06:34.327Z,0
2017-12-11T17:07:44.412Z,0
2017-12-11T17:08:54.494Z,0
2017-12-11T17:10:04.303Z,0
2017-12-11T17:11:14.401Z,0
2017-12-11T17:12:24.207Z,0
2017-12-11T17:13:34.023Z,0
2017-12-11T17:14:44.131Z,0
2017-12-11T17:15:54.235Z,0
2017-12-11T17:17:04.359Z,0
2017-12-11T17:18:14.439Z,0
2017-12-11T17:19:24.512Z,0
2017-12-11T17:20:34.592Z,0
2017-12-11T17:21:44.151Z,0
2017-12-11T17:22:54.237Z,0
2017-12-11T17:24:04.053Z,0
2017-12-11T17:25:14.161Z,0